Ty Lotus — DSNU7 — position and weather

sailwx.info

Track history (hours):
 
Tides and Currents Weather Stations Pressure Air Temp Water Temp Dewpoint Dewpoint Depression Visibility Wind Speed Wind Dir Waves Ship Positions

Ty Lotus

Last reported at 2015-Apr-26 01:28 UTC. Time now 2015-Apr-28 02:09 UTC.
Position N 34°40' E 134°40'.

Length 82 m; draft 4 m.

Type: Cargo ship. MMSI: 440324000.

Date/timePositionNaut miles runAvg speedWind from/ knotsBaromVisibWave heightAir tempDewpointWater temp
2015-Apr-26 01:28N 34°40' E 134°40'  
2015-Apr-22 18:11N 34°36' E 134°54'6 9.6
2015-Apr-22 17:33N 34°37' E 135°01'9 9.0
2015-Apr-22 16:33N 34°28' E 135°04'1111.4
2015-Apr-22 15:33N 34°18' E 134°59'1311.8
2015-Apr-22 14:27N 34°05' E 134°60'227 8.7
2015-Apr-21 12:17N 34°57' E 139°28'810.4
2015-Apr-21 11:33N 35°02' E 139°34'1110.7
2015-Apr-21 10:33N 35°09' E 139°44'9 9.4
2015-Apr-21 09:33N 35°19' E 139°43'9 9.2
2015-Apr-21 08:33N 35°27' E 139°47'1110.5
2015-Apr-21 07:33N 35°35' E 139°57'3 0.1
2015-Apr-20 08:20N 35°36' E 139°60'0 0.0
2015-Apr-18 12:31N 35°36' E 139°60'2 2.6
2015-Apr-18 11:34N 35°35' E 139°57'1110.8
2015-Apr-18 10:34N 35°26' E 139°49'9 9.4
2015-Apr-18 09:34N 35°17' E 139°45'1010.4
2015-Apr-18 08:33N 35°07' E 139°45'244 9.8
2015-Apr-17 07:32N 34°01' E 134°60'1111.5
2015-Apr-17 06:34N 34°12' E 134°58'2311.6
2015-Apr-17 04:33N 34°31' E 135°14'1110.5
2015-Apr-17 03:33N 34°38' E 135°24'1 0.6
2015-Apr-17 02:31N 34°38' E 135°24'0 0.0
2015-Apr-17 01:25N 34°38' E 135°24'0 0.0
2015-Apr-17 00:31N 34°38' E 135°24'0 0.0
2015-Apr-16 23:25N 34°38' E 135°24'0 0.0
2015-Apr-16 22:22N 34°38' E 135°24'2 2.7
2015-Apr-16 21:33N 34°37' E 135°22'0 0.1
2015-Apr-16 20:28N 34°37' E 135°22'0 0.0
2015-Apr-16 19:22N 34°37' E 135°22'0 0.0
2015-Apr-16 18:28N 34°37' E 135°22'0 0.0
2015-Apr-16 17:28N 34°37' E 135°22'0 0.0
2015-Apr-16 16:28N 34°37' E 135°22'0 0.0
2015-Apr-16 15:28N 34°37' E 135°22'0 0.1
2015-Apr-16 14:28N 34°37' E 135°22'0 0.0
2015-Apr-16 13:28N 34°37' E 135°22'0 0.1
2015-Apr-16 12:28N 34°37' E 135°22'0 0.0
2015-Apr-16 11:28N 34°37' E 135°22'0 0.0
2015-Apr-16 10:28N 34°37' E 135°22'0 0.0
2015-Apr-16 09:28N 34°37' E 135°22'0 0.1
2015-Apr-16 08:28N 34°37' E 135°22'0 0.1
2015-Apr-16 07:33N 34°37' E 135°22'0 0.1
2015-Apr-16 06:33N 34°37' E 135°22'6 5.8
2015-Apr-16 05:33N 34°35' E 135°15'1312.2
2015-Apr-16 04:31N 34°37' E 134°60'  
Track history (hours):
 
Tides and Currents Weather Stations Pressure Air Temp Water Temp Dewpoint Dewpoint Depression Visibility Wind Speed Wind Dir Waves Ship Positions

Ty Lotus

Last reported at 2015-Apr-26 01:28 UTC. Time now 2015-Apr-28 02:09 UTC.
Position N 34°40' E 134°40'.

Length 82 m; draft 4 m.

Type: Cargo ship. MMSI: 440324000.

Date/timePositionNaut miles runAvg speedWind from/ knotsBaromVisibWave heightAir tempDewpointWater temp
2015-Apr-26 01:28N 34°40' E 134°40'  
2015-Apr-22 18:11N 34°36' E 134°54'6 9.6
2015-Apr-22 17:33N 34°37' E 135°01'9 9.0
2015-Apr-22 16:33N 34°28' E 135°04'1111.4
2015-Apr-22 15:33N 34°18' E 134°59'1311.8
2015-Apr-22 14:27N 34°05' E 134°60'227 8.7
2015-Apr-21 12:17N 34°57' E 139°28'810.4
2015-Apr-21 11:33N 35°02' E 139°34'1110.7
2015-Apr-21 10:33N 35°09' E 139°44'9 9.4
2015-Apr-21 09:33N 35°19' E 139°43'9 9.2
2015-Apr-21 08:33N 35°27' E 139°47'1110.5
2015-Apr-21 07:33N 35°35' E 139°57'3 0.1
2015-Apr-20 08:20N 35°36' E 139°60'0 0.0
2015-Apr-18 12:31N 35°36' E 139°60'2 2.6
2015-Apr-18 11:34N 35°35' E 139°57'1110.8
2015-Apr-18 10:34N 35°26' E 139°49'9 9.4
2015-Apr-18 09:34N 35°17' E 139°45'1010.4
2015-Apr-18 08:33N 35°07' E 139°45'244 9.8
2015-Apr-17 07:32N 34°01' E 134°60'1111.5
2015-Apr-17 06:34N 34°12' E 134°58'2311.6
2015-Apr-17 04:33N 34°31' E 135°14'1110.5
2015-Apr-17 03:33N 34°38' E 135°24'1 0.6
2015-Apr-17 02:31N 34°38' E 135°24'0 0.0
2015-Apr-17 01:25N 34°38' E 135°24'0 0.0
2015-Apr-17 00:31N 34°38' E 135°24'0 0.0
2015-Apr-16 23:25N 34°38' E 135°24'0 0.0
2015-Apr-16 22:22N 34°38' E 135°24'2 2.7
2015-Apr-16 21:33N 34°37' E 135°22'0 0.1
2015-Apr-16 20:28N 34°37' E 135°22'0 0.0
2015-Apr-16 19:22N 34°37' E 135°22'0 0.0
2015-Apr-16 18:28N 34°37' E 135°22'0 0.0
2015-Apr-16 17:28N 34°37' E 135°22'0 0.0
2015-Apr-16 16:28N 34°37' E 135°22'0 0.0
2015-Apr-16 15:28N 34°37' E 135°22'0 0.1
2015-Apr-16 14:28N 34°37' E 135°22'0 0.0
2015-Apr-16 13:28N 34°37' E 135°22'0 0.1
2015-Apr-16 12:28N 34°37' E 135°22'0 0.0
2015-Apr-16 11:28N 34°37' E 135°22'0 0.0
2015-Apr-16 10:28N 34°37' E 135°22'0 0.0
2015-Apr-16 09:28N 34°37' E 135°22'0 0.1
2015-Apr-16 08:28N 34°37' E 135°22'0 0.1
2015-Apr-16 07:33N 34°37' E 135°22'0 0.1
2015-Apr-16 06:33N 34°37' E 135°22'6 5.8
2015-Apr-16 05:33N 34°35' E 135°15'1312.2
2015-Apr-16 04:31N 34°37' E 134°60'  

Dump ship's entire track history